CheckWX is a tool to help pilots better visualize weather data.  It is not intended as a substitute for an official pre-flight weather briefing.

14:17:01 UTC

KLBB TAF
Lubbock Preston Smith International Airport
Lubbock, Texas, USA
KLBB 201120Z 2012/2112 21011KT P6SM FEW150 SCT250 FM202100 16011KT P6SM FEW090 SCT250

Aug-20@
12:00 UTC

Aug-20 @ 12:00 UTC

Aug-20@
21:00 UTC

Aug-20 @ 21:00 UTC

KLBB 201120Z 2012/2112 21011KT P6SM FEW150 SCT250
Wind
  • 210° at 11 KTS
Cloud Levels
  • Few at 15,000' AGL
  • Scattered at 25,000' AGL

Aug-20@
21:00 UTC

Aug-20 @ 21:00 UTC

Aug-21@
12:00 UTC

Aug-21 @ 12:00 UTC

FM202100 16011KT P6SM FEW090 SCT250

From

From Standard forecast or significant change

Wind
  • 160° at 11 KTS
Cloud Levels
  • Few at 9,000' AGL
  • Scattered at 25,000' AGL